Time;durP1;ratioP1;P1;durP2;ratioP2;P2;SDS_P1;SDS_P2;PMS_P1;PMS_P2;Temp;Humidity;BMP_temperature;BMP_pressure;BME280_temperature;BME280_humidity;BME280_pressure;Samples;Min_cycle;Max_cycle;Signal;HPM_P1;HPM_P2
2023/12/22 00:02:17;;;;;;;30.83;17.50;;;;;;;17.78;49.99;100358.97;5029833;28;20127;-43
2023/12/22 00:04:44;;;;;;;29.35;17.17;;;;;;;17.80;50.17;100357.78;5024741;28;20065;-42
2023/12/22 00:07:11;;;;;;;30.23;17.55;;;;;;;17.78;50.50;100362.47;5028982;28;20054;-42
2023/12/22 00:09:38;;;;;;;26.98;15.98;;;;;;;17.75;50.11;100360.94;5025108;28;20050;-42
2023/12/22 00:12:04;;;;;;;29.30;17.02;;;;;;;17.73;50.19;100357.59;5025348;28;20492;-43
2023/12/22 00:14:31;;;;;;;26.38;16.48;;;;;;;17.68;50.19;100359.88;5032322;28;20111;-41
2023/12/22 00:16:58;;;;;;;24.67;15.52;;;;;;;17.64;50.09;100373.78;5020470;28;20918;-42
2023/12/22 00:19:25;;;;;;;28.45;16.70;;;;;;;17.59;50.08;100379.63;5027792;28;20056;-43
2023/12/22 00:21:51;;;;;;;27.83;16.33;;;;;;;17.55;50.50;100388.16;5028575;28;20056;-42
2023/12/22 00:24:18;;;;;;;26.95;15.82;;;;;;;17.50;50.34;100386.81;5028043;28;20049;-42
2023/12/22 00:26:44;;;;;;;26.33;15.32;;;;;;;17.48;50.42;100377.25;5025691;28;20084;-42
2023/12/22 00:29:11;;;;;;;24.45;14.40;;;;;;;17.45;50.56;100357.00;5022469;28;20049;-43
2023/12/22 00:31:38;;;;;;;26.88;15.25;;;;;;;17.43;50.29;100390.28;5021575;28;20409;-42
2023/12/22 00:34:05;;;;;;;23.05;13.80;;;;;;;17.40;50.95;100395.97;5022090;28;20041;-43
2023/12/22 00:36:32;;;;;;;21.92;13.05;;;;;;;17.38;50.38;100400.66;5038262;28;20081;-44
2023/12/22 00:38:58;;;;;;;22.98;13.48;;;;;;;17.36;50.29;100392.75;5026383;28;20138;-43
2023/12/22 00:41:25;;;;;;;22.10;12.98;;;;;;;17.34;50.44;100384.06;5043360;28;20046;-43
2023/12/22 00:43:51;;;;;;;22.98;13.38;;;;;;;17.32;50.90;100382.53;5028494;28;20061;-42
2023/12/22 00:46:19;;;;;;;23.90;13.60;;;;;;;17.30;50.77;100379.19;5029106;28;20077;-42
2023/12/22 00:48:46;;;;;;;22.90;12.57;;;;;;;17.28;50.40;100382.84;5025673;28;20046;-43
2023/12/22 00:51:13;;;;;;;19.77;12.30;;;;;;;17.26;50.70;100390.22;5026557;28;20038;-42
2023/12/22 00:53:40;;;;;;;19.52;11.95;;;;;;;17.24;50.47;100386.84;5017936;28;20049;-42
2023/12/22 00:56:06;;;;;;;22.60;12.85;;;;;;;17.23;50.46;100378.97;5021398;28;20105;-41
2023/12/22 00:58:33;;;;;;;19.38;11.45;;;;;;;17.22;50.69;100396.06;5025521;28;20114;-43
2023/12/22 01:01:00;;;;;;;19.95;12.30;;;;;;;17.21;51.06;100421.16;5023340;28;20134;-43
2023/12/22 01:03:27;;;;;;;21.02;12.55;;;;;;;17.22;50.63;100410.28;5030348;28;20075;-42
2023/12/22 01:05:53;;;;;;;18.05;10.65;;;;;;;17.25;51.00;100409.13;5041931;28;20133;-42
2023/12/22 01:08:20;;;;;;;18.35;10.93;;;;;;;17.32;50.90;100422.72;5029624;28;20041;-43
2023/12/22 01:10:47;;;;;;;19.98;10.70;;;;;;;17.40;50.94;100412.03;5026988;28;20533;-43
2023/12/22 01:13:14;;;;;;;15.77;9.40;;;;;;;17.48;50.74;100410.22;5028956;28;20131;-43
2023/12/22 01:15:43;;;;;;;17.45;9.52;;;;;;;17.57;50.42;100404.91;5031362;28;20052;-42
2023/12/22 01:18:10;;;;;;;15.88;9.75;;;;;;;17.64;50.40;100414.81;5030562;28;20077;-41
2023/12/22 01:20:37;;;;;;;15.43;8.63;;;;;;;17.69;50.08;100417.03;5025865;28;20050;-43
2023/12/22 01:23:04;;;;;;;16.38;9.70;;;;;;;17.74;50.11;100414.69;5028499;28;20438;-43
2023/12/22 01:25:30;;;;;;;17.38;8.68;;;;;;;17.77;49.91;100419.78;5025272;28;20050;-42
2023/12/22 01:27:57;;;;;;;17.83;8.75;;;;;;;17.76;50.04;100413.56;5045038;28;20135;-42
2023/12/22 01:30:24;;;;;;;14.80;7.78;;;;;;;17.76;49.91;100418.06;5022684;28;20112;-42
2023/12/22 01:32:50;;;;;;;14.60;8.63;;;;;;;17.75;49.95;100419.09;5032693;28;20064;-43
2023/12/22 01:35:17;;;;;;;12.45;7.60;;;;;;;17.72;50.07;100419.38;5042342;28;20096;-43
2023/12/22 01:37:43;;;;;;;15.45;8.55;;;;;;;17.67;50.20;100414.50;5033603;28;20056;-41
2023/12/22 01:40:10;;;;;;;11.85;7.38;;;;;;;17.63;50.34;100415.81;5025673;28;20040;-43
2023/12/22 01:42:37;;;;;;;13.82;8.02;;;;;;;17.58;50.25;100409.28;5029638;28;20045;-41
2023/12/22 01:45:04;;;;;;;16.10;8.07;;;;;;;17.54;50.07;100419.47;5028818;28;20138;-42
2023/12/22 01:47:31;;;;;;;14.95;8.48;;;;;;;17.51;50.42;100419.78;5030408;28;20140;-43
2023/12/22 01:49:57;;;;;;;13.35;7.70;;;;;;;17.48;50.74;100407.53;5023911;28;20046;-41
2023/12/22 01:52:25;;;;;;;12.50;7.43;;;;;;;17.46;50.74;100406.06;5026174;28;20076;-43
2023/12/22 01:54:54;;;;;;;14.50;8.27;;;;;;;17.43;50.52;100409.03;5022970;28;20500;-42
2023/12/22 01:57:21;;;;;;;11.30;7.03;;;;;;;17.41;50.72;100408.38;5021560;28;20434;-41
2023/12/22 01:59:48;;;;;;;14.05;7.43;;;;;;;17.39;50.79;100411.19;5024513;28;20151;-42
2023/12/22 02:02:16;;;;;;;12.10;7.20;;;;;;;17.37;51.00;100415.91;5025588;28;20060;-43
2023/12/22 02:04:45;;;;;;;14.73;7.38;;;;;;;17.36;50.75;100429.44;5030230;28;20342;-42
2023/12/22 02:07:12;;;;;;;12.57;7.72;;;;;;;17.34;50.59;100412.69;5022945;28;20104;-42
2023/12/22 02:09:38;;;;;;;13.45;6.93;;;;;;;17.31;50.61;100402.28;5027252;28;20402;-42
2023/12/22 02:12:05;;;;;;;13.55;7.03;;;;;;;17.28;50.75;100404.28;5024457;28;20060;-42
2023/12/22 02:14:32;;;;;;;13.32;6.70;;;;;;;17.27;50.89;100397.25;5028752;28;20054;-42
2023/12/22 02:17:22;;;;;;;10.88;6.68;;;;;;;17.23;50.68;100401.25;5026654;28;20104;-42
2023/12/22 02:19:48;;;;;;;12.10;7.00;;;;;;;17.23;50.52;100395.03;5033602;28;20392;-41
2023/12/22 02:22:15;;;;;;;14.48;6.65;;;;;;;17.22;50.54;100396.06;5028693;28;20045;-44
2023/12/22 02:24:42;;;;;;;10.75;5.93;;;;;;;17.20;51.15;100382.81;5026368;28;20077;-42
2023/12/22 02:27:13;;;;;;;11.93;6.50;;;;;;;17.21;50.78;100383.66;5027823;28;20045;-42
2023/12/22 02:30:16;;;;;;;10.07;5.38;;;;;;;17.22;51.31;100378.13;5024156;28;20041;-42
2023/12/22 02:32:46;;;;;;;10.65;6.00;;;;;;;17.28;50.99;100382.00;5024764;28;20057;-42
2023/12/22 02:35:20;;;;;;;10.35;5.38;;;;;;;17.35;50.89;100383.06;5022740;28;20046;-42
2023/12/22 02:37:49;;;;;;;9.43;5.07;;;;;;;17.41;50.68;100382.44;5024346;28;20084;-42
2023/12/22 02:40:17;;;;;;;11.85;5.20;;;;;;;17.49;50.37;100384.31;5023509;28;20042;-42
2023/12/22 02:42:44;;;;;;;10.25;5.13;;;;;;;17.55;50.59;100389.00;5024561;28;20088;-42
2023/12/22 02:45:16;;;;;;;11.23;4.97;;;;;;;17.59;50.72;100390.34;5027711;28;20333;-42
2023/12/22 02:47:43;;;;;;;10.05;4.65;;;;;;;17.64;50.17;100373.78;5027985;28;20434;-42
2023/12/22 02:50:11;;;;;;;9.68;4.72;;;;;;;17.65;50.21;100376.31;5026642;28;20124;-43
2023/12/22 02:52:38;;;;;;;10.38;4.50;;;;;;;17.67;50.34;100386.88;5031810;28;20055;-43
2023/12/22 02:55:06;;;;;;;7.88;4.35;;;;;;;17.67;50.46;100398.41;5027471;28;20553;-42
2023/12/22 02:57:32;;;;;;;9.93;4.72;;;;;;;17.67;49.91;100382.34;5025110;28;20103;-42
2023/12/22 02:59:59;;;;;;;8.57;4.13;;;;;;;17.68;50.29;100386.69;5023905;28;20059;-42
2023/12/22 03:02:26;;;;;;;10.48;4.68;;;;;;;17.67;50.22;100398.41;5025840;28;20105;-43
2023/12/22 03:04:52;;;;;;;10.05;4.65;;;;;;;17.66;50.19;100388.72;5025571;28;20103;-42
2023/12/22 03:07:19;;;;;;;10.30;3.85;;;;;;;17.65;50.24;100378.16;5028653;28;20336;-42
2023/12/22 03:09:46;;;;;;;10.80;4.40;;;;;;;17.64;50.13;100384.50;5027332;28;20050;-42
2023/12/22 03:12:12;;;;;;;11.15;4.53;;;;;;;17.61;49.96;100401.75;5029947;28;20056;-42
2023/12/22 03:14:39;;;;;;;8.95;3.75;;;;;;;17.60;50.04;100413.47;5026480;28;20045;-42
2023/12/22 03:17:06;;;;;;;8.70;3.95;;;;;;;17.58;50.10;100396.72;5031581;28;20045;-42
2023/12/22 03:19:33;;;;;;;9.57;4.32;;;;;;;17.57;49.88;100399.53;5032032;28;20049;-42
2023/12/22 03:22:00;;;;;;;12.88;4.40;;;;;;;17.53;50.00;100396.38;5031960;28;20045;-42
2023/12/22 03:24:28;;;;;;;8.40;3.90;;;;;;;17.51;50.46;100393.00;5021226;28;20060;-42
2023/12/22 03:26:55;;;;;;;8.43;3.53;;;;;;;17.48;50.53;100385.28;5025070;28;20050;-41
2023/12/22 03:29:22;;;;;;;9.05;4.43;;;;;;;17.47;50.54;100399.69;5023832;28;20064;-42
2023/12/22 03:31:49;;;;;;;9.27;3.92;;;;;;;17.44;50.23;100395.47;5023929;28;20430;-42
2023/12/22 03:34:15;;;;;;;8.65;3.58;;;;;;;17.44;50.33;100394.63;5023510;28;20053;-42
2023/12/22 03:36:42;;;;;;;9.45;3.88;;;;;;;17.41;50.40;100392.31;5026591;28;20050;-42
2023/12/22 03:39:09;;;;;;;7.85;3.67;;;;;;;17.39;50.73;100403.16;5029612;28;20046;-42
2023/12/22 03:41:35;;;;;;;8.38;3.10;;;;;;;17.37;50.71;100397.13;5029072;28;20077;-42
2023/12/22 03:44:02;;;;;;;10.13;3.83;;;;;;;17.36;50.92;100399.97;5030028;28;20559;-42
2023/12/22 03:46:29;;;;;;;9.65;3.65;;;;;;;17.34;50.67;100416.19;5025494;28;20163;-42
2023/12/22 03:48:55;;;;;;;8.48;3.80;;;;;;;17.34;50.54;100412.69;5028628;28;21449;-42
2023/12/22 03:51:22;;;;;;;8.05;3.28;;;;;;;17.36;50.76;100413.34;5028737;28;20054;-42
2023/12/22 03:53:49;;;;;;;6.55;3.53;;;;;;;17.40;50.74;100406.69;5030866;28;20046;-42
2023/12/22 03:56:15;;;;;;;8.13;3.33;;;;;;;17.44;50.52;100408.03;5026387;28;20111;-42
2023/12/22 03:58:42;;;;;;;10.38;2.95;;;;;;;17.49;50.31;100401.22;5021119;28;20129;-43
2023/12/22 04:01:09;;;;;;;7.82;3.40;;;;;;;17.55;50.07;100405.06;5026979;28;20045;-42
2023/12/22 04:03:35;;;;;;;11.35;3.30;;;;;;;17.62;50.15;100408.78;5026773;28;20497;-42
2023/12/22 04:06:03;;;;;;;8.30;3.38;;;;;;;17.64;50.31;100409.47;5029780;28;20080;-44
2023/12/22 04:08:30;;;;;;;6.20;2.42;;;;;;;17.69;50.01;100407.16;5028188;28;20049;-42
2023/12/22 04:10:57;;;;;;;6.63;3.03;;;;;;;17.70;49.88;100413.34;5027911;28;20141;-41
2023/12/22 04:13:23;;;;;;;7.30;3.63;;;;;;;17.71;49.67;100421.22;5024382;28;20066;-42
2023/12/22 04:15:50;;;;;;;10.88;3.45;;;;;;;17.71;49.85;100423.91;5031199;28;20050;-43
2023/12/22 04:18:17;;;;;;;6.63;2.97;;;;;;;17.69;49.87;100423.25;5028865;28;20081;-43
2023/12/22 04:20:43;;;;;;;9.52;3.17;;;;;;;17.66;50.17;100426.22;5029639;28;20053;-43
2023/12/22 04:23:10;;;;;;;6.32;2.88;;;;;;;17.62;50.14;100432.91;5030199;28;20081;-42
2023/12/22 04:25:36;;;;;;;8.27;2.85;;;;;;;17.57;50.12;100424.53;5023290;28;20814;-42
2023/12/22 04:28:03;;;;;;;9.27;3.40;;;;;;;17.55;50.22;100431.03;5030233;28;20053;-43
2023/12/22 04:30:30;;;;;;;7.47;2.42;;;;;;;17.50;50.17;100420.81;5032795;28;21219;-43
2023/12/22 04:33:00;;;;;;;6.15;2.60;;;;;;;17.47;50.13;100413.06;5027502;28;20061;-43
2023/12/22 04:35:27;;;;;;;8.35;2.95;;;;;;;17.44;50.34;100435.66;5031454;28;20129;-43
2023/12/22 04:37:53;;;;;;;9.82;3.22;;;;;;;17.42;50.38;100428.81;5032099;28;20132;-43
2023/12/22 04:40:20;;;;;;;8.88;2.50;;;;;;;17.40;50.79;100428.94;5026715;28;20058;-42
2023/12/22 04:42:47;;;;;;;6.00;2.30;;;;;;;17.38;50.16;100428.28;5025176;28;20348;-41
2023/12/22 04:45:13;;;;;;;6.25;2.35;;;;;;;17.36;50.56;100424.06;5026478;28;20053;-43
2023/12/22 04:47:40;;;;;;;7.13;2.67;;;;;;;17.35;50.41;100425.06;5025880;28;20088;-43
2023/12/22 04:50:07;;;;;;;8.70;3.03;;;;;;;17.34;50.52;100439.47;5028073;28;20049;-43
2023/12/22 04:52:33;;;;;;;7.65;2.33;;;;;;;17.32;50.88;100436.09;5029358;28;20050;-41
2023/12/22 04:55:00;;;;;;;6.38;2.63;;;;;;;17.31;50.83;100429.06;5031621;28;20071;-43
2023/12/22 04:57:27;;;;;;;11.07;2.75;;;;;;;17.28;50.40;100444.44;5030604;28;20061;-41
2023/12/22 04:59:53;;;;;;;8.07;2.85;;;;;;;17.28;50.70;100451.66;5023318;28;20045;-43
2023/12/22 05:02:20;;;;;;;8.60;2.55;;;;;;;17.26;50.17;100438.44;5026483;28;20045;-43
2023/12/22 05:04:47;;;;;;;7.88;2.53;;;;;;;17.25;50.40;100427.88;5022405;28;20057;-43
2023/12/22 05:07:13;;;;;;;6.93;2.63;;;;;;;17.24;50.94;100440.41;5024853;28;20056;-43
2023/12/22 05:09:42;;;;;;;8.07;2.42;;;;;;;17.25;50.70;100434.06;5027291;28;21167;-43
2023/12/22 05:12:09;;;;;;;7.72;2.38;;;;;;;17.32;50.75;100436.09;5026108;28;20050;-42
2023/12/22 05:14:36;;;;;;;8.05;2.20;;;;;;;17.35;50.86;100436.63;5028053;28;20575;-43
2023/12/22 05:17:02;;;;;;;6.80;2.13;;;;;;;17.40;50.21;100434.31;5028760;28;20049;-42
2023/12/22 05:19:29;;;;;;;5.18;1.92;;;;;;;17.45;50.32;100434.69;5032057;28;20049;-42
2023/12/22 05:21:56;;;;;;;6.05;2.47;;;;;;;17.51;50.33;100435.88;5031591;28;20048;-42
2023/12/22 05:24:23;;;;;;;5.75;2.35;;;;;;;17.57;50.12;100420.97;5030952;28;20053;-42
2023/12/22 05:26:49;;;;;;;6.25;2.55;;;;;;;17.61;50.17;100425.00;5026088;28;20072;-42
2023/12/22 05:29:16;;;;;;;9.43;3.17;;;;;;;17.64;50.15;100424.69;5032056;28;20054;-42
2023/12/22 05:31:44;;;;;;;7.18;2.35;;;;;;;17.66;50.05;100433.44;5023831;28;20079;-42
2023/12/22 05:34:10;;;;;;;7.40;2.38;;;;;;;17.67;49.98;100435.94;5023514;28;20049;-42
2023/12/22 05:36:37;;;;;;;5.63;2.33;;;;;;;17.67;50.17;100419.88;5027834;28;20400;-43
2023/12/22 05:39:03;;;;;;;5.70;2.08;;;;;;;17.66;50.17;100422.72;5025748;28;20049;-41
2023/12/22 05:41:34;;;;;;;5.95;2.20;;;;;;;17.62;50.16;100421.34;5027809;28;20054;-43
2023/12/22 05:44:00;;;;;;;5.47;2.28;;;;;;;17.58;50.19;100426.19;5024274;28;20045;-42
2023/12/22 05:46:27;;;;;;;3.60;1.92;;;;;;;17.55;50.17;100414.97;5029278;28;20080;-42
2023/12/22 05:48:57;;;;;;;7.03;2.33;;;;;;;17.51;50.44;100422.47;5028203;28;20056;-40
2023/12/22 05:51:24;;;;;;;5.75;2.20;;;;;;;17.47;50.38;100431.84;5025797;28;20053;-42
2023/12/22 05:53:53;;;;;;;5.45;2.17;;;;;;;17.45;50.38;100426.66;5028360;28;20053;-43
2023/12/22 05:56:21;;;;;;;5.85;2.03;;;;;;;17.42;50.12;100421.59;5024293;28;20409;-41
2023/12/22 05:58:50;;;;;;;7.90;2.30;;;;;;;17.41;50.70;100424.44;5027103;28;20053;-42
2023/12/22 06:01:18;;;;;;;4.75;2.05;;;;;;;17.37;50.41;100423.94;5028341;28;20072;-42
2023/12/22 06:03:46;;;;;;;7.93;2.60;;;;;;;17.38;50.51;100432.81;5027532;28;20076;-42
2023/12/22 06:06:13;;;;;;;7.45;2.38;;;;;;;17.36;50.37;100432.94;5026348;28;20425;-42
2023/12/22 06:08:39;;;;;;;7.90;2.25;;;;;;;17.35;50.64;100422.41;5029202;28;20049;-42
2023/12/22 06:11:06;;;;;;;7.47;2.53;;;;;;;17.34;50.41;100420.72;5028693;28;20077;-42
2023/12/22 06:13:33;;;;;;;6.90;2.17;;;;;;;17.32;50.44;100412.00;5026784;28;20080;-43
2023/12/22 06:16:00;;;;;;;7.53;2.40;;;;;;;17.29;50.44;100423.88;5030066;28;20060;-43
2023/12/22 06:18:26;;;;;;;7.45;2.22;;;;;;;17.28;50.48;100425.69;5021624;28;20381;-41
2023/12/22 06:20:54;;;;;;;8.00;2.20;;;;;;;17.28;50.75;100431.06;5033190;28;20136;-43
2023/12/22 06:23:21;;;;;;;5.82;1.70;;;;;;;17.27;50.61;100440.09;5041211;28;20057;-43
2023/12/22 06:25:48;;;;;;;4.22;1.98;;;;;;;17.27;50.75;100440.09;5025158;28;20102;-43
2023/12/22 06:28:16;;;;;;;9.00;2.70;;;;;;;17.25;51.15;100439.44;5025002;28;20081;-43
2023/12/22 06:30:44;;;;;;;7.72;2.40;;;;;;;17.27;50.63;100431.22;5028057;28;20357;-42
2023/12/22 06:33:11;;;;;;;7.38;2.22;;;;;;;17.29;50.56;100431.91;5036012;28;20060;-43
2023/12/22 06:35:40;;;;;;;8.27;2.65;;;;;;;17.34;50.74;100418.03;5037316;28;20445;-41
2023/12/22 06:38:07;;;;;;;7.32;2.90;;;;;;;17.39;50.44;100413.03;5019615;28;20049;-43
2023/12/22 06:40:34;;;;;;;8.05;2.83;;;;;;;17.44;50.32;100416.06;5020191;28;20319;-43
2023/12/22 06:43:01;;;;;;;8.02;2.40;;;;;;;17.48;50.50;100426.31;5020480;28;20037;-43
2023/12/22 06:45:28;;;;;;;6.63;2.33;;;;;;;17.52;50.43;100430.34;5019887;28;20080;-43
2023/12/22 06:47:55;;;;;;;9.05;3.30;;;;;;;17.55;50.19;100431.88;5022556;28;20103;-43
2023/12/22 06:50:22;;;;;;;9.82;3.10;;;;;;;17.59;50.12;100440.44;5023083;28;20053;-42
2023/12/22 06:52:49;;;;;;;7.72;2.85;;;;;;;17.58;49.99;100436.09;5024226;28;20053;-42
2023/12/22 06:55:16;;;;;;;6.82;2.63;;;;;;;17.58;50.20;100420.00;5027048;28;20081;-43
2023/12/22 06:57:43;;;;;;;9.38;3.20;;;;;;;17.57;50.29;100426.34;5026647;28;20062;-42
2023/12/22 07:00:12;;;;;;;8.75;2.70;;;;;;;17.53;50.69;100417.81;5029001;28;20103;-42
2023/12/22 07:02:38;;;;;;;8.43;2.60;;;;;;;17.50;50.04;100420.81;5027311;28;20104;-44
2023/12/22 07:05:23;;;;;;;8.65;3.25;;;;;;;17.46;50.43;100427.47;5023003;28;20076;-44
2023/12/22 07:07:51;;;;;;;8.55;2.88;;;;;;;17.44;50.39;100416.06;5021403;28;20054;-43
2023/12/22 07:10:18;;;;;;;8.95;3.10;;;;;;;17.42;50.72;100415.41;5026017;28;20091;-43
2023/12/22 07:12:44;;;;;;;10.23;3.03;;;;;;;17.39;50.41;100397.81;5022026;28;20046;-44
2023/12/22 07:15:11;;;;;;;10.35;3.47;;;;;;;17.37;50.64;100417.72;5026570;28;20045;-44
2023/12/22 07:17:38;;;;;;;9.68;3.28;;;;;;;17.36;50.64;100416.03;5024649;28;20430;-43
2023/12/22 07:20:05;;;;;;;12.60;3.50;;;;;;;17.34;50.73;100410.00;5030512;28;20053;-43
2023/12/22 07:22:32;;;;;;;10.77;3.42;;;;;;;17.33;50.55;100411.03;5026996;28;20057;-42
2023/12/22 07:24:59;;;;;;;6.68;2.95;;;;;;;17.31;50.68;100415.69;5028813;28;20046;-42
2023/12/22 07:27:25;;;;;;;11.63;3.25;;;;;;;17.29;50.50;100415.84;5030904;28;20085;-43
2023/12/22 07:29:54;;;;;;;11.02;2.90;;;;;;;17.29;50.93;100421.22;5031221;28;20136;-43
2023/12/22 07:32:20;;;;;;;8.70;2.97;;;;;;;17.27;50.86;100416.00;5024124;28;20049;-41
2023/12/22 07:34:47;;;;;;;11.45;3.22;;;;;;;17.27;50.86;100401.75;5029594;28;20080;-43
2023/12/22 07:37:14;;;;;;;9.38;3.17;;;;;;;17.26;50.55;100400.09;5025223;28;20565;-42
2023/12/22 07:39:41;;;;;;;10.95;3.10;;;;;;;17.26;50.94;100402.78;5031980;28;20125;-43
2023/12/22 07:42:08;;;;;;;11.93;3.33;;;;;;;17.27;51.15;100410.63;5021981;28;20129;-42
2023/12/22 07:44:35;;;;;;;12.27;3.90;;;;;;;17.32;50.63;100395.91;5025472;28;20049;-42
2023/12/22 07:47:01;;;;;;;9.70;3.47;;;;;;;17.37;50.88;100373.03;5026549;28;20053;-42
2023/12/22 07:49:29;;;;;;;11.80;3.33;;;;;;;17.45;50.65;100415.09;5026213;28;20081;-43
2023/12/22 07:51:57;;;;;;;9.50;3.08;;;;;;;17.51;50.33;100404.56;5025296;28;20046;-43
2023/12/22 07:54:25;;;;;;;11.38;3.45;;;;;;;17.59;50.08;100401.06;5024189;28;20112;-42
2023/12/22 07:56:52;;;;;;;10.05;2.90;;;;;;;17.67;49.99;100402.94;5026489;28;20041;-43
2023/12/22 07:59:18;;;;;;;12.27;3.35;;;;;;;17.72;50.19;100412.16;5025448;28;20426;-42
2023/12/22 08:01:56;;;;;;;11.07;4.10;;;;;;;17.78;49.82;100416.09;5024026;28;20053;-43
2023/12/22 08:04:23;;;;;;;11.25;3.58;;;;;;;17.82;49.92;100432.69;5025946;28;20053;-43
2023/12/22 08:06:50;;;;;;;9.85;3.65;;;;;;;17.83;49.71;100412.91;5032215;28;20045;-42
2023/12/22 08:09:17;;;;;;;10.05;3.72;;;;;;;17.83;49.91;100413.75;5029168;28;20058;-42
2023/12/22 08:11:46;;;;;;;10.48;3.45;;;;;;;17.81;49.79;100401.50;5029296;28;20141;-43
2023/12/22 08:14:13;;;;;;;12.45;3.45;;;;;;;17.80;49.93;100423.97;5029512;28;20054;-41
2023/12/22 08:16:39;;;;;;;11.20;3.42;;;;;;;17.76;49.76;100412.72;5026480;28;20103;-42
2023/12/22 08:19:06;;;;;;;10.43;3.40;;;;;;;17.73;49.96;100423.75;5021513;28;20114;-42
2023/12/22 08:21:33;;;;;;;9.75;3.13;;;;;;;17.68;49.80;100420.69;5027199;28;20345;-42
2023/12/22 08:24:11;;;;;;;14.00;3.13;;;;;;;17.64;49.96;100409.47;5024181;28;20057;-42
2023/12/22 08:26:48;;;;;;;8.82;2.90;;;;;;;17.59;50.05;100394.88;5024560;28;20056;-42
2023/12/22 08:29:15;;;;;;;8.52;3.28;;;;;;;17.57;49.95;100418.31;5028189;28;20041;-42
2023/12/22 08:31:43;;;;;;;10.05;3.60;;;;;;;17.53;50.33;100412.44;5027103;28;20049;-42
2023/12/22 08:34:10;;;;;;;8.82;3.15;;;;;;;17.50;49.92;100397.53;5026808;28;20349;-44
2023/12/22 08:36:37;;;;;;;10.77;3.05;;;;;;;17.48;50.70;100398.69;5027093;28;20107;-41
2023/12/22 08:39:07;;;;;;;8.93;2.90;;;;;;;17.45;50.53;100399.84;5026555;28;20064;-43
2023/12/22 08:41:37;;;;;;;9.38;2.75;;;;;;;17.44;50.25;100398.16;5024887;28;20053;-43
2023/12/22 08:44:05;;;;;;;9.40;3.42;;;;;;;17.42;51.00;100397.50;5016481;28;20046;-43
2023/12/22 08:46:32;;;;;;;7.93;2.78;;;;;;;17.40;50.56;100394.13;5020069;28;20050;-43
2023/12/22 08:48:59;;;;;;;9.18;3.60;;;;;;;17.40;50.60;100391.44;5021508;28;20050;-42
2023/12/22 08:51:27;;;;;;;9.70;2.80;;;;;;;17.39;50.33;100388.94;5027902;28;20686;-41
2023/12/22 08:53:57;;;;;;;10.18;3.33;;;;;;;17.37;50.71;100397.13;5027859;28;20056;-42
2023/12/22 08:56:24;;;;;;;9.50;3.05;;;;;;;17.36;50.74;100427.59;5026156;28;20136;-42
2023/12/22 08:58:54;;;;;;;13.40;3.10;;;;;;;17.35;50.58;100388.41;5030728;28;20409;-43
2023/12/22 09:01:22;;;;;;;7.53;2.85;;;;;;;17.34;50.21;100397.44;5026200;28;20552;-43
2023/12/22 09:03:49;;;;;;;7.78;2.85;;;;;;;17.34;50.62;100392.09;5032569;28;20069;-42
2023/12/22 09:06:16;;;;;;;9.75;2.88;;;;;;;17.33;51.09;100385.06;5034865;28;20045;-42
2023/12/22 09:08:44;;;;;;;10.13;3.35;;;;;;;17.32;51.00;100382.53;5034138;28;20045;-42
2023/12/22 09:11:12;;;;;;;8.93;3.20;;;;;;;17.31;50.70;100376.34;5027265;28;20048;-42
2023/12/22 09:13:38;;;;;;;9.65;3.83;;;;;;;17.34;50.85;100380.53;5023426;28;20099;-43
2023/12/22 09:16:05;;;;;;;13.55;5.95;;;;;;;17.35;50.32;100380.38;5023053;28;20049;-43
2023/12/22 09:18:32;;;;;;;14.52;6.60;;;;;;;17.37;51.26;100367.66;5021388;28;20049;-42
2023/12/22 09:20:59;;;;;;;14.65;6.88;;;;;;;17.39;50.39;100376.38;5029934;28;20159;-42
2023/12/22 09:23:26;;;;;;;16.10;7.90;;;;;;;17.42;51.03;100383.25;5026092;28;20096;-43
2023/12/22 09:25:53;;;;;;;19.50;9.13;;;;;;;17.43;50.30;100382.25;5024323;28;20049;-43
2023/12/22 09:28:20;;;;;;;20.50;9.70;;;;;;;17.43;50.52;100385.75;5031383;28;20450;-43
2023/12/22 09:30:46;;;;;;;20.67;10.32;;;;;;;17.44;50.64;100391.97;5027972;28;20056;-43
2023/12/22 09:33:13;;;;;;;18.33;9.95;;;;;;;17.45;50.60;100399.84;5025109;28;20132;-43
2023/12/22 09:35:41;;;;;;;20.67;10.68;;;;;;;17.45;50.94;100382.94;5039186;28;20076;-43
2023/12/22 09:38:10;;;;;;;23.27;11.55;;;;;;;17.45;50.32;100382.94;5031804;28;20120;-43
2023/12/22 09:40:37;;;;;;;20.10;11.82;;;;;;;17.44;50.54;100382.06;5029375;28;20331;-42
2023/12/22 09:43:05;;;;;;;25.27;11.73;;;;;;;17.43;50.78;100393.81;5027299;28;20383;-42
2023/12/22 09:45:33;;;;;;;22.95;11.35;;;;;;;17.43;50.46;100406.38;5026492;28;20386;-43
2023/12/22 09:48:01;;;;;;;23.25;12.43;;;;;;;17.43;50.91;100390.28;5027590;28;20049;-44
2023/12/22 09:50:28;;;;;;;24.20;12.73;;;;;;;17.43;50.99;100406.38;5030219;28;20060;-43
2023/12/22 09:52:55;;;;;;;25.10;13.70;;;;;;;17.42;50.83;100410.06;5029058;28;20056;-43
2023/12/22 09:55:22;;;;;;;22.05;13.02;;;;;;;17.41;50.53;100394.97;5032246;28;20344;-42
2023/12/22 09:57:50;;;;;;;32.78;15.23;;;;;;;17.39;50.77;100407.69;5030514;28;20409;-42
2023/12/22 10:00:18;;;;;;;32.08;16.98;;;;;;;17.38;50.76;100404.16;5028952;28;20349;-43
2023/12/22 10:02:45;;;;;;;30.17;17.35;;;;;;;17.38;50.95;100397.97;5021745;28;20041;-42
2023/12/22 10:05:15;;;;;;;30.88;18.10;;;;;;;17.37;51.05;100398.97;5021683;28;20133;-42
2023/12/22 10:07:44;;;;;;;33.97;19.00;;;;;;;17.37;50.95;100405.19;5023580;28;20065;-43
2023/12/22 10:10:12;;;;;;;34.78;20.15;;;;;;;17.36;50.90;100413.34;5022966;28;20123;-43
2023/12/22 10:12:41;;;;;;;34.25;20.23;;;;;;;17.35;50.71;100404.47;5018393;28;20046;-42
2023/12/22 10:15:09;;;;;;;36.80;20.60;;;;;;;17.35;51.07;100400.97;5023240;28;20061;-42
2023/12/22 10:17:36;;;;;;;37.92;21.55;;;;;;;17.36;51.09;100402.63;5023252;28;20111;-42
2023/12/22 10:20:04;;;;;;;35.08;20.90;;;;;;;17.34;51.07;100412.69;5025108;28;20611;-42
2023/12/22 10:22:31;;;;;;;36.95;20.92;;;;;;;17.33;51.25;100414.53;5022346;28;20089;-42
2023/12/22 10:24:57;;;;;;;37.78;21.85;;;;;;;17.34;51.51;100418.88;5019336;28;20521;-43
2023/12/22 10:27:24;;;;;;;37.25;21.10;;;;;;;17.33;51.30;100403.81;5017931;28;20132;-41
2023/12/22 10:29:54;;;;;;;37.58;21.42;;;;;;;17.32;50.64;100409.31;5020314;28;20426;-42
2023/12/22 10:32:21;;;;;;;32.95;20.00;;;;;;;17.33;51.44;100411.84;5019607;28;20044;-42
2023/12/22 10:34:50;;;;;;;35.13;19.27;;;;;;;17.31;51.46;100405.81;5021329;28;20416;-43
2023/12/22 10:37:17;;;;;;;34.28;19.40;;;;;;;17.33;51.20;100424.41;5025298;28;20347;-43
2023/12/22 10:39:48;;;;;;;33.92;19.77;;;;;;;17.32;51.41;100436.94;5021139;28;20045;-43
2023/12/22 10:42:15;;;;;;;33.42;18.77;;;;;;;17.34;51.05;100420.72;5018421;28;20049;-43
2023/12/22 10:44:42;;;;;;;36.50;19.77;;;;;;;17.33;51.06;100421.72;5029167;28;20049;-43
2023/12/22 10:47:09;;;;;;;30.55;17.70;;;;;;;17.33;50.76;100427.94;5028643;28;20141;-42
2023/12/22 10:49:36;;;;;;;30.95;17.70;;;;;;;17.34;51.71;100431.44;5027964;28;20084;-44
2023/12/22 10:52:03;;;;;;;33.15;17.70;;;;;;;17.34;51.47;100434.13;5022303;28;20438;-42
2023/12/22 10:54:30;;;;;;;29.17;16.60;;;;;;;17.34;51.10;100423.41;5028183;28;20054;-43
2023/12/22 10:57:00;;;;;;;27.33;15.77;;;;;;;17.34;51.26;100415.38;5023125;28;20045;-42
2023/12/22 10:59:32;;;;;;;28.98;16.08;;;;;;;17.34;51.14;100410.00;5021860;28;20062;-42
2023/12/22 11:02:04;;;;;;;28.92;16.10;;;;;;;17.33;51.08;100405.66;5025578;28;20057;-43
2023/12/22 11:04:35;;;;;;;30.10;15.82;;;;;;;17.33;51.28;100419.88;5023009;28;20394;-42
2023/12/22 11:07:03;;;;;;;26.15;14.57;;;;;;;17.34;50.92;100413.53;5025562;28;20168;-43
2023/12/22 11:09:35;;;;;;;26.48;14.93;;;;;;;17.34;50.81;100404.66;5025648;28;20054;-45
2023/12/22 11:12:02;;;;;;;22.20;12.80;;;;;;;17.28;51.44;100400.75;5023740;28;20054;-42
2023/12/22 11:14:31;;;;;;;24.88;13.35;;;;;;;17.25;51.28;100399.25;5024064;28;20085;-44
2023/12/22 11:17:01;;;;;;;23.05;14.00;;;;;;;17.25;51.63;100399.25;5022079;28;20057;-44
2023/12/22 11:19:30;;;;;;;24.42;13.95;;;;;;;17.25;51.66;100406.47;5027478;28;20405;-44
2023/12/22 11:21:58;;;;;;;24.55;14.68;;;;;;;17.24;51.16;100391.34;5025600;28;20418;-44